Time;durP1;ratioP1;P1;durP2;ratioP2;P2;SDS_P1;SDS_P2;PMS_P1;PMS_P2;Temp;Humidity;BMP_temperature;BMP_pressure;BME280_temperature;BME280_humidity;BME280_pressure;Samples;Min_cycle;Max_cycle;Signal;HPM_P1;HPM_P2
2021/08/30 00:00:29;;;;;;;3.25;1.73;;;;;;;13.39;100.00;99424.06;6289074;28;20036;-83
2021/08/30 00:03:30;;;;;;;2.13;1.63;;;;;;;13.57;100.00;99421.72;6294051;28;20123;-83
2021/08/30 00:06:31;;;;;;;4.80;1.95;;;;;;;13.78;100.00;99434.81;6260451;28;20170;-83
2021/08/30 00:09:31;;;;;;;2.83;2.00;;;;;;;13.70;100.00;99434.63;6277302;28;20040;-83
2021/08/30 00:12:35;;;;;;;2.00;1.80;;;;;;;13.57;100.00;99421.72;6277379;28;20040;-83
2021/08/30 00:15:36;;;;;;;4.10;2.25;;;;;;;13.59;100.00;99439.91;6277585;28;20068;-85
2021/08/30 00:18:36;;;;;;;5.93;2.45;;;;;;;13.63;100.00;99447.44;6277460;28;20047;-84
2021/08/30 00:21:37;;;;;;;2.97;2.00;;;;;;;13.69;100.00;99452.16;6295144;28;20044;-85
2021/08/30 00:24:38;;;;;;;3.40;2.20;;;;;;;13.81;100.00;99462.56;6293894;28;20086;-83
2021/08/30 00:27:39;;;;;;;3.40;2.35;;;;;;;13.81;100.00;99457.31;6277302;28;20140;-84
2021/08/30 00:30:40;;;;;;;5.30;2.60;;;;;;;13.87;100.00;99462.03;6293902;28;20046;-84
2021/08/30 00:33:41;;;;;;;3.78;3.03;;;;;;;13.83;100.00;99465.88;6293619;28;20036;-84
2021/08/30 00:36:41;;;;;;;4.05;2.55;;;;;;;13.87;100.00;99464.66;6277249;28;20037;-84
2021/08/30 00:39:42;;;;;;;5.05;2.70;;;;;;;13.88;100.00;99466.34;6293668;28;20053;-84
2021/08/30 00:42:44;;;;;;;3.03;2.25;;;;;;;13.86;100.00;99473.50;6293514;28;20436;-84
2021/08/30 00:45:45;;;;;;;3.70;2.65;;;;;;;13.87;100.00;99480.41;6276881;28;20044;-85
2021/08/30 00:48:49;;;;;;;2.97;2.42;;;;;;;13.80;100.00;99482.72;6260342;28;20076;-85
2021/08/30 00:51:50;;;;;;;3.42;2.35;;;;;;;13.79;100.00;99493.31;6276854;28;20045;-83
2021/08/30 00:54:52;;;;;;;4.05;2.83;;;;;;;13.84;100.00;99499.03;6293510;28;20151;-84
2021/08/30 00:57:53;;;;;;;4.80;3.10;;;;;;;13.79;100.00;99495.94;6276893;28;20095;-84
2021/08/30 01:00:54;;;;;;;4.85;3.60;;;;;;;13.75;100.00;99494.53;6276852;28;20276;-85
2021/08/30 01:03:55;;;;;;;7.22;5.03;;;;;;;13.82;100.00;99498.31;6310362;28;20040;-85
2021/08/30 01:07:07;;;;;;;8.18;5.50;;;;;;;13.60;100.00;99492.22;6276683;28;20045;-86
2021/08/30 01:10:32;;;;;;;7.18;5.30;;;;;;;13.55;100.00;99501.41;6293313;28;20079;-83
2021/08/30 01:13:40;;;;;;;6.60;5.03;;;;;;;13.56;100.00;99503.09;6293211;28;20062;-86
2021/08/30 01:16:43;;;;;;;8.32;4.82;;;;;;;13.60;100.00;99510.56;6295215;28;20040;-84
2021/08/30 01:19:51;;;;;;;6.10;4.65;;;;;;;13.61;100.00;99509.63;6314432;28;20441;-83
2021/08/30 01:22:56;;;;;;;10.50;4.95;;;;;;;13.71;100.00;99514.94;6299310;28;20036;-84
2021/08/30 01:26:02;;;;;;;6.07;4.55;;;;;;;13.68;100.00;99510.78;6297571;28;20045;-84
2021/08/30 01:29:06;;;;;;;8.07;5.32;;;;;;;13.74;100.00;99514.69;6298809;28;20487;-84
2021/08/30 01:32:19;;;;;;;7.40;4.50;;;;;;;13.61;100.00;99509.63;6298746;28;20037;-84
2021/08/30 01:35:23;;;;;;;5.82;4.38;;;;;;;13.61;100.00;99516.66;6298722;28;20071;-84
2021/08/30 01:38:23;;;;;;;7.22;4.25;;;;;;;13.66;100.00;99515.31;6305202;28;20052;-83
2021/08/30 01:41:27;;;;;;;7.93;5.03;;;;;;;13.59;100.00;99515.94;6323620;28;20044;-83
2021/08/30 01:44:29;;;;;;;6.25;4.70;;;;;;;13.68;100.00;99510.78;6272552;28;20501;-83
2021/08/30 01:47:30;;;;;;;5.75;4.80;;;;;;;13.77;100.00;99511.78;6322180;28;20526;-83
2021/08/30 01:50:33;;;;;;;7.37;4.97;;;;;;;13.81;100.00;99518.44;6305329;28;20058;-83
2021/08/30 01:53:34;;;;;;;5.47;4.80;;;;;;;13.81;100.00;99515.81;6323218;28;20068;-84
2021/08/30 01:56:35;;;;;;;8.68;4.78;;;;;;;13.78;100.00;99507.41;6305355;28;20410;-82
2021/08/30 02:02:55;;;;;;;6.90;4.53;;;;;;;13.79;100.00;99512.50;6307744;28;20048;-82
2021/08/30 02:06:00;;;;;;;7.78;4.65;;;;;;;13.81;100.00;99504.50;6271688;28;20498;-82
2021/08/30 02:09:03;;;;;;;6.82;4.10;;;;;;;13.76;100.00;99509.31;6304969;28;20036;-84
2021/08/30 02:12:04;;;;;;;6.53;4.50;;;;;;;13.73;100.00;99513.00;6288454;28;20071;-83
2021/08/30 02:15:05;;;;;;;6.45;4.75;;;;;;;13.70;100.00;99510.66;6271878;28;20127;-82
2021/08/30 02:18:32;;;;;;;9.10;4.25;;;;;;;13.73;100.00;99510.38;6321444;28;20044;-83
2021/08/30 02:21:48;;;;;;;9.60;4.32;;;;;;;13.75;100.00;99505.03;6322668;28;20081;-83
2021/08/30 02:25:02;;;;;;;8.32;4.32;;;;;;;13.77;100.00;99505.72;6304463;28;20043;-83
2021/08/30 02:28:03;;;;;;;5.13;4.05;;;;;;;13.74;100.00;99490.28;6321762;28;20069;-81
2021/08/30 02:31:05;;;;;;;6.35;4.85;;;;;;;13.70;100.00;99501.00;6271268;28;20036;-82
2021/08/30 02:34:07;;;;;;;7.00;4.60;;;;;;;13.70;100.00;99500.16;6271577;28;20044;-81
2021/08/30 02:37:09;;;;;;;9.57;4.70;;;;;;;13.68;100.00;99499.47;6322121;28;20040;-81
2021/08/30 02:40:12;;;;;;;6.22;4.75;;;;;;;13.70;100.00;99494.94;6270895;28;20087;-81
2021/08/30 02:43:13;;;;;;;6.63;4.65;;;;;;;13.76;100.00;99497.03;6322072;28;20057;-81
2021/08/30 02:46:15;;;;;;;8.60;5.00;;;;;;;13.62;100.00;99499.97;6303961;28;20150;-82
2021/08/30 02:49:16;;;;;;;5.90;4.37;;;;;;;13.69;100.00;99491.47;6303896;28;20036;-81
2021/08/30 02:52:19;;;;;;;8.43;4.57;;;;;;;13.61;100.00;99496.53;6304096;28;20044;-81
2021/08/30 02:55:21;;;;;;;8.95;4.45;;;;;;;13.61;100.00;99498.28;6303709;28;20040;-80
2021/08/30 02:58:24;;;;;;;6.18;4.20;;;;;;;13.59;100.00;99493.19;6303651;28;20044;-81
2021/08/30 03:01:25;;;;;;;5.70;4.90;;;;;;;13.63;100.00;99485.88;6270580;28;20109;-81
2021/08/30 03:04:27;;;;;;;7.28;5.57;;;;;;;13.57;100.00;99486.41;6286853;28;20410;-81
2021/08/30 03:07:29;;;;;;;8.82;4.85;;;;;;;13.58;100.00;99485.47;6303667;28;20144;-80
2021/08/30 03:10:31;;;;;;;8.75;5.35;;;;;;;13.50;100.00;99486.91;6270242;28;20040;-80
2021/08/30 03:13:32;;;;;;;9.23;5.80;;;;;;;13.57;100.00;99483.78;6286744;28;20044;-80
2021/08/30 03:16:35;;;;;;;9.27;6.25;;;;;;;13.49;100.00;99497.53;6320020;28;20502;-81
2021/08/30 03:19:41;;;;;;;10.18;6.10;;;;;;;13.54;100.00;99490.13;6320030;28;20092;-81
2021/08/30 03:22:42;;;;;;;8.75;6.55;;;;;;;13.55;100.00;99491.78;6321175;28;20040;-80
2021/08/30 03:25:44;;;;;;;9.45;7.53;;;;;;;13.52;100.00;99493.81;6321153;28;20062;-80
2021/08/30 03:28:45;;;;;;;9.75;6.72;;;;;;;13.46;100.00;99497.78;6303173;28;20051;-82
2021/08/30 03:31:48;;;;;;;17.88;7.10;;;;;;;13.53;100.00;99500.72;6303013;28;20079;-80
2021/08/30 03:34:49;;;;;;;8.93;6.53;;;;;;;13.50;100.00;99504.44;6270136;28;20040;-80
2021/08/30 03:37:50;;;;;;;8.73;6.65;;;;;;;13.48;100.00;99501.91;6302594;28;20387;-80
2021/08/30 03:40:52;;;;;;;11.30;6.28;;;;;;;13.40;100.00;99496.47;6286214;28;20032;-80
2021/08/30 03:43:54;;;;;;;7.20;6.32;;;;;;;13.42;100.00;99497.19;6302559;28;20051;-81
2021/08/30 03:46:55;;;;;;;10.25;6.60;;;;;;;13.45;100.00;99504.81;6320782;28;20060;-81
2021/08/30 03:49:57;;;;;;;8.23;6.18;;;;;;;13.36;100.00;99502.09;6285933;28;20066;-81
2021/08/30 03:53:00;;;;;;;12.00;7.18;;;;;;;13.34;100.00;99510.06;6269585;28;20093;-83
2021/08/30 03:56:02;;;;;;;8.05;6.35;;;;;;;13.39;100.00;99509.72;6302492;28;20044;-81
2021/08/30 03:59:04;;;;;;;7.53;6.45;;;;;;;13.31;100.00;99510.34;6285730;28;20048;-81
2021/08/30 04:02:07;;;;;;;7.20;5.90;;;;;;;13.28;100.00;99514.00;6302378;28;20040;-82
2021/08/30 04:05:10;;;;;;;11.63;6.20;;;;;;;13.32;100.00;99519.03;6320523;28;20043;-81
2021/08/30 04:08:11;;;;;;;8.45;5.50;;;;;;;13.35;100.00;99513.56;6269550;28;20089;-82
2021/08/30 04:11:14;;;;;;;7.38;5.30;;;;;;;13.38;100.00;99516.72;6269097;28;20131;-80
2021/08/30 04:14:16;;;;;;;6.82;5.07;;;;;;;13.37;100.00;99525.56;6285877;28;20048;-81
2021/08/30 04:17:17;;;;;;;8.98;5.07;;;;;;;13.38;100.00;99521.16;6285446;28;20068;-81
2021/08/30 04:20:18;;;;;;;10.88;5.30;;;;;;;13.41;100.00;99521.75;6320248;28;20044;-81
2021/08/30 04:23:19;;;;;;;4.78;4.32;;;;;;;13.47;100.00;99523.03;6285456;28;20040;-81
2021/08/30 04:26:19;;;;;;;6.28;4.40;;;;;;;13.51;100.00;99529.69;6268933;28;20043;-81
2021/08/30 04:29:20;;;;;;;5.35;4.22;;;;;;;13.59;100.00;99527.28;6301929;28;20093;-81
2021/08/30 04:32:21;;;;;;;7.95;4.32;;;;;;;13.61;100.00;99527.97;6285493;28;20036;-81
2021/08/30 04:35:23;;;;;;;6.68;3.92;;;;;;;13.65;100.00;99524.16;6285241;28;20079;-81
2021/08/30 04:38:23;;;;;;;7.47;4.22;;;;;;;13.65;100.00;99526.78;6301758;28;20074;-81
2021/08/30 04:41:24;;;;;;;5.38;4.03;;;;;;;13.75;100.00;99529.44;6285489;28;20044;-80
2021/08/30 04:44:25;;;;;;;4.60;3.58;;;;;;;13.80;100.00;99529.09;6268553;28;20043;-81
2021/08/30 04:47:26;;;;;;;7.10;3.90;;;;;;;13.79;100.00;99536.09;6285204;28;20036;-81
2021/08/30 04:50:30;;;;;;;11.07;3.70;;;;;;;13.80;100.00;99540.41;6302050;28;20036;-81
2021/08/30 04:53:31;;;;;;;9.60;3.83;;;;;;;13.81;100.00;99533.34;6290451;28;20032;-81
2021/08/30 04:56:32;;;;;;;5.03;4.15;;;;;;;13.82;100.00;99542.91;6290017;28;20046;-81
2021/08/30 04:59:33;;;;;;;7.23;4.20;;;;;;;13.83;100.00;99548.00;6290062;28;20040;-81
2021/08/30 05:02:33;;;;;;;6.68;4.05;;;;;;;13.88;100.00;99550.25;6273183;28;20040;-81
2021/08/30 05:05:34;;;;;;;6.97;3.47;;;;;;;13.95;100.00;99540.09;6273284;28;20403;-81
2021/08/30 05:08:35;;;;;;;7.05;4.22;;;;;;;13.93;100.00;99550.69;6289708;28;20044;-82
2021/08/30 05:11:37;;;;;;;6.00;3.47;;;;;;;13.89;100.00;99547.50;6272751;28;20036;-82
2021/08/30 05:14:38;;;;;;;7.30;4.28;;;;;;;13.88;100.00;99548.47;6287691;28;20487;-82
2021/08/30 05:17:39;;;;;;;5.22;3.83;;;;;;;13.81;100.00;99549.09;6289457;28;20044;-84
2021/08/30 05:20:39;;;;;;;6.30;4.30;;;;;;;13.78;100.00;99544.94;6300374;28;20041;-84
2021/08/30 05:23:40;;;;;;;6.35;4.20;;;;;;;13.75;100.00;99549.59;6264588;28;20043;-83
2021/08/30 05:26:41;;;;;;;5.15;4.20;;;;;;;13.69;100.00;99548.31;6248223;28;20047;-84
2021/08/30 05:29:42;;;;;;;6.28;4.45;;;;;;;13.67;100.00;99540.59;6264616;28;20267;-83
2021/08/30 05:32:42;;;;;;;7.25;4.47;;;;;;;13.72;100.00;99555.09;6248314;28;20041;-86
2021/08/30 05:35:43;;;;;;;5.57;4.30;;;;;;;13.73;100.00;99551.50;6248373;28;20045;-86
2021/08/30 05:38:44;;;;;;;5.50;4.00;;;;;;;13.65;100.00;99554.75;6264400;28;20045;-84
2021/08/30 05:41:45;;;;;;;6.22;4.47;;;;;;;13.64;100.00;99548.69;6280791;28;20048;-84
2021/08/30 05:44:46;;;;;;;8.65;4.07;;;;;;;13.65;100.00;99544.28;6264167;28;20071;-84
2021/08/30 05:47:47;;;;;;;7.13;4.70;;;;;;;13.66;100.00;99546.78;6264181;28;20043;-83
2021/08/30 05:50:48;;;;;;;6.45;4.90;;;;;;;13.64;100.00;99546.06;6247705;28;20041;-83
2021/08/30 05:53:48;;;;;;;7.90;4.32;;;;;;;13.76;100.00;99539.00;6235943;28;20484;-82
2021/08/30 05:56:49;;;;;;;6.55;4.47;;;;;;;13.77;100.00;99539.81;6288800;28;20059;-82
2021/08/30 05:59:50;;;;;;;5.88;4.47;;;;;;;13.78;100.00;99537.06;6272124;28;20127;-82
2021/08/30 06:02:50;;;;;;;6.57;4.68;;;;;;;13.77;100.00;99538.03;6304000;28;20046;-81
2021/08/30 06:05:51;;;;;;;10.10;4.88;;;;;;;13.75;100.00;99539.13;6288627;28;20166;-82
2021/08/30 06:08:52;;;;;;;7.72;4.93;;;;;;;13.83;100.00;99537.50;6271979;28;20040;-83
2021/08/30 06:11:52;;;;;;;7.00;4.43;;;;;;;13.85;100.00;99535.59;6304676;28;20467;-82
2021/08/30 06:14:53;;;;;;;5.53;4.68;;;;;;;13.98;100.00;99534.56;6305031;28;20089;-83
2021/08/30 06:17:54;;;;;;;5.63;4.72;;;;;;;13.97;100.00;99530.31;6303122;28;20032;-84
2021/08/30 06:20:55;;;;;;;6.35;4.82;;;;;;;13.99;100.00;99531.84;6289949;28;20041;-82
2021/08/30 06:23:55;;;;;;;6.97;5.05;;;;;;;14.06;100.00;99524.28;6265092;28;20439;-82
2021/08/30 06:26:56;;;;;;;5.75;4.85;;;;;;;14.08;100.00;99523.22;6277125;28;20105;-82
2021/08/30 06:29:57;;;;;;;6.25;5.03;;;;;;;14.01;100.00;99527.28;6263155;28;20059;-83
2021/08/30 06:32:57;;;;;;;6.57;4.90;;;;;;;14.11;100.00;99536.06;6263079;28;20123;-85
2021/08/30 06:35:58;;;;;;;6.15;5.32;;;;;;;14.17;100.00;99533.88;6271445;28;20052;-86
2021/08/30 06:39:00;;;;;;;6.82;5.82;;;;;;;14.22;100.00;99535.13;6270930;28;20052;-86
2021/08/30 06:42:02;;;;;;;11.15;4.70;;;;;;;14.21;100.00;99535.28;6255625;28;20078;-88
2021/08/30 06:45:04;;;;;;;6.40;5.07;;;;;;;14.09;100.00;99535.34;6304141;28;20093;-87
2021/08/30 06:48:05;;;;;;;5.72;5.07;;;;;;;14.11;100.00;99537.84;6271476;28;20532;-88
2021/08/30 06:51:06;;;;;;;7.20;5.28;;;;;;;14.17;100.00;99534.72;6304011;28;20143;-85
2021/08/30 06:54:07;;;;;;;6.50;5.18;;;;;;;14.21;100.00;99537.91;6254564;28;20395;-87
2021/08/30 06:57:08;;;;;;;6.18;5.05;;;;;;;14.17;100.00;99545.22;6287530;28;20036;-87
2021/08/30 07:00:09;;;;;;;7.43;4.97;;;;;;;14.25;100.00;99542.78;6270879;28;20051;-86
2021/08/30 07:03:10;;;;;;;6.07;4.80;;;;;;;14.21;100.00;99545.78;6287499;28;20494;-86
2021/08/30 07:06:11;;;;;;;6.03;5.22;;;;;;;14.27;100.00;99545.28;6304020;28;20036;-85
2021/08/30 07:09:12;;;;;;;5.82;5.00;;;;;;;14.25;100.00;99563.75;6270647;28;20047;-86
2021/08/30 07:12:13;;;;;;;6.65;5.40;;;;;;;14.29;100.00;99564.34;6286990;28;20123;-85
2021/08/30 07:15:14;;;;;;;7.35;5.32;;;;;;;14.27;100.00;99561.00;6286628;28;20050;-86
2021/08/30 07:18:16;;;;;;;6.70;5.82;;;;;;;14.08;100.00;99572.19;6287390;28;20044;-88
2021/08/30 07:21:17;;;;;;;6.80;6.10;;;;;;;14.04;100.00;99576.03;6304061;28;20047;-87
2021/08/30 07:24:18;;;;;;;14.30;6.45;;;;;;;14.09;100.00;99582.56;6270801;28;20036;-89
2021/08/30 07:27:19;;;;;;;7.55;5.95;;;;;;;14.18;100.00;99582.75;6270685;28;20046;-84
2021/08/30 07:30:19;;;;;;;9.02;6.13;;;;;;;14.32;100.00;99587.69;6303282;28;20043;-84
2021/08/30 07:33:21;;;;;;;8.30;6.07;;;;;;;14.48;100.00;99580.19;6286781;28;20481;-85
2021/08/30 07:36:22;;;;;;;5.75;5.10;;;;;;;14.63;100.00;99582.50;6269853;28;20055;-86
2021/08/30 07:39:23;;;;;;;7.50;5.43;;;;;;;14.75;100.00;99589.31;6269782;28;20542;-84
2021/08/30 07:42:24;;;;;;;8.23;5.88;;;;;;;14.74;100.00;99592.91;6302964;28;20406;-84
2021/08/30 07:45:25;;;;;;;11.23;5.97;;;;;;;14.78;100.00;99599.56;6286629;28;20127;-85
2021/08/30 07:48:26;;;;;;;6.70;5.65;;;;;;;14.73;100.00;99598.31;6303057;28;20542;-85
2021/08/30 07:51:27;;;;;;;7.78;6.22;;;;;;;14.69;100.00;99597.72;6269961;28;20466;-84
2021/08/30 07:54:28;;;;;;;9.13;6.15;;;;;;;14.62;100.00;99600.06;6269935;28;20044;-84
2021/08/30 07:57:28;;;;;;;7.97;5.70;;;;;;;14.58;100.00;99598.66;6286403;28;20108;-84
2021/08/30 08:00:29;;;;;;;10.50;5.53;;;;;;;14.69;100.00;99610.84;6286082;28;20040;-84
2021/08/30 08:03:30;;;;;;;7.47;5.68;;;;;;;14.75;100.00;99607.72;6302794;28;20494;-87
2021/08/30 08:06:32;;;;;;;10.77;5.97;;;;;;;14.88;100.00;99605.69;6285623;28;20120;-85
2021/08/30 08:09:32;;;;;;;12.27;6.47;;;;;;;15.00;100.00;99610.84;6302507;28;20043;-85
2021/08/30 08:12:33;;;;;;;7.25;5.85;;;;;;;14.91;100.00;99607.22;6270387;28;20069;-87
2021/08/30 08:15:34;;;;;;;8.55;5.53;;;;;;;15.06;100.00;99607.69;6274313;28;20094;-87
2021/08/30 08:18:36;;;;;;;7.15;5.68;;;;;;;15.32;100.00;99606.25;6261853;28;20098;-87
2021/08/30 08:21:37;;;;;;;9.07;6.18;;;;;;;15.92;100.00;99608.00;6229107;28;20049;-86
2021/08/30 08:24:37;;;;;;;6.82;5.25;;;;;;;15.74;100.00;99609.66;6261371;28;20040;-85
2021/08/30 08:27:38;;;;;;;8.38;4.65;;;;;;;15.31;100.00;99612.47;6281791;28;20048;-90
2021/08/30 08:30:39;;;;;;;9.38;4.95;;;;;;;15.41;100.00;99623.00;6312302;28;20119;-87
2021/08/30 08:33:41;;;;;;;8.30;5.32;;;;;;;15.40;100.00;99621.34;6285344;28;20279;-86
2021/08/30 08:36:42;;;;;;;6.93;5.30;;;;;;;15.38;100.00;99622.44;6266677;28;20037;-89
2021/08/30 08:39:44;;;;;;;5.95;3.97;;;;;;;15.32;100.00;99623.81;6266270;28;20052;-88
2021/08/30 08:42:45;;;;;;;5.97;5.07;;;;;;;15.26;100.00;99625.19;6249763;28;20055;-88
2021/08/30 08:45:47;;;;;;;8.93;6.68;;;;;;;15.17;100.00;99623.34;6282378;28;20044;-86
2021/08/30 08:48:48;;;;;;;6.22;4.50;;;;;;;15.23;100.00;99633.31;6266233;28;20093;-86
2021/08/30 08:51:50;;;;;;;5.75;4.80;;;;;;;15.11;100.00;99634.38;6265823;28;20126;-88
2021/08/30 08:54:51;;;;;;;5.65;4.70;;;;;;;15.04;100.00;99631.47;6307343;28;20132;-91
2021/08/30 08:57:52;;;;;;;6.78;5.00;;;;;;;15.15;100.00;99634.97;6274151;28;20036;-89
2021/08/30 09:01:03;;;;;;;7.03;4.88;;;;;;;15.20;100.00;99630.16;6290240;28;20093;-87
2021/08/30 09:04:04;;;;;;;6.93;5.82;;;;;;;15.38;100.00;99639.06;6325136;28;20040;-87
2021/08/30 09:07:13;;;;;;;7.95;7.07;;;;;;;15.18;100.00;99634.72;6307111;28;20036;-88
2021/08/30 09:10:16;;;;;;;9.45;7.32;;;;;;;15.08;100.00;99632.03;6307080;28;20097;-86
2021/08/30 09:13:25;;;;;;;8.60;7.70;;;;;;;14.86;100.00;99640.94;6290407;28;20036;-84
2021/08/30 09:16:26;;;;;;;12.88;9.15;;;;;;;14.72;100.00;99636.84;6324765;28;20048;-89
2021/08/30 09:19:27;;;;;;;10.73;9.20;;;;;;;14.85;100.00;99639.28;6306665;28;20479;-86
2021/08/30 09:22:33;;;;;;;13.07;10.45;;;;;;;14.92;100.00;99635.16;6289856;28;20047;-85
2021/08/30 09:25:34;;;;;;;15.80;10.35;;;;;;;15.07;100.00;99635.63;6306583;28;20040;-86
2021/08/30 09:28:38;;;;;;;12.73;10.52;;;;;;;15.15;100.00;99635.78;6289989;28;20457;-86
2021/08/30 09:31:40;;;;;;;12.90;10.27;;;;;;;15.31;100.00;99638.75;6290000;28;20399;-86
2021/08/30 09:34:47;;;;;;;12.85;9.82;;;;;;;15.31;100.00;99620.34;6306259;28;20445;-90
2021/08/30 09:37:48;;;;;;;14.13;9.88;;;;;;;15.45;100.00;99627.03;6323302;28;20036;-82
2021/08/30 09:40:49;;;;;;;10.37;9.23;;;;;;;15.39;100.00;99632.81;6305862;28;20048;-80
2021/08/30 09:44:08;;;;;;;17.27;9.82;;;;;;;15.15;100.00;99635.78;6272620;28;20402;-80
2021/08/30 09:47:11;;;;;;;13.23;10.35;;;;;;;15.02;100.00;99637.81;6289127;28;20063;-86
2021/08/30 09:50:12;;;;;;;11.73;9.90;;;;;;;14.89;100.00;99641.50;6323854;28;20071;-79
2021/08/30 09:53:13;;;;;;;12.48;9.32;;;;;;;14.87;100.00;99642.59;6288684;28;20490;-82
2021/08/30 09:56:13;;;;;;;14.10;9.38;;;;;;;15.11;100.00;99648.38;6288626;28;20093;-83
2021/08/30 09:59:16;;;;;;;14.88;9.05;;;;;;;15.16;100.00;99645.34;6288628;28;20036;-83
2021/08/30 10:02:17;;;;;;;10.73;9.02;;;;;;;15.15;100.00;99646.28;6288371;28;20044;-80
2021/08/30 10:05:19;;;;;;;13.13;9.80;;;;;;;15.56;100.00;99646.28;6305167;28;20073;-82
2021/08/30 10:08:22;;;;;;;10.05;8.30;;;;;;;16.11;100.00;99641.38;6272107;28;20506;-83
2021/08/30 10:11:23;;;;;;;9.73;8.50;;;;;;;16.51;100.00;99635.94;6323608;28;20036;-81
2021/08/30 10:14:26;;;;;;;9.73;8.48;;;;;;;16.08;100.00;99645.13;6271906;28;20055;-88
2021/08/30 10:17:27;;;;;;;10.93;7.95;;;;;;;15.90;100.00;99636.25;6304922;28;20394;-86
2021/08/30 10:20:33;;;;;;;10.40;7.78;;;;;;;16.08;100.00;99629.34;6288172;28;20044;-86
2021/08/30 10:23:36;;;;;;;9.00;7.65;;;;;;;16.23;100.00;99635.00;6288451;28;20048;-82
2021/08/30 10:26:38;;;;;;;11.00;8.18;;;;;;;16.30;100.00;99635.25;6304541;28;20036;-81
2021/08/30 10:29:41;;;;;;;8.68;7.78;;;;;;;16.39;100.00;99637.06;6304960;28;20039;-88
2021/08/30 10:32:43;;;;;;;10.75;7.40;;;;;;;16.39;100.00;99637.06;6288816;28;20444;-83
2021/08/30 10:35:44;;;;;;;9.45;7.55;;;;;;;16.51;100.00;99630.66;6304542;28;20048;-83
2021/08/30 10:39:04;;;;;;;10.68;8.27;;;;;;;16.61;100.00;99635.88;6279074;28;20055;-79
2021/08/30 10:42:06;;;;;;;8.30;6.80;;;;;;;16.59;100.00;99635.19;6296020;28;20060;-83
2021/08/30 10:45:07;;;;;;;;;;;;;;;16.47;100.00;99634.56;6312867;28;20040;-83
2021/08/30 10:48:11;;;;;;;11.57;6.60;;;;;;;16.58;100.00;99643.25;6278785;28;19927;-82
2021/08/30 10:51:15;;;;;;;13.80;6.65;;;;;;;16.91;100.00;99647.22;6295564;28;20430;-85
2021/08/30 10:54:19;;;;;;;6.78;6.07;;;;;;;16.98;99.25;99650.91;6295725;28;20044;-81
2021/08/30 10:57:38;;;;;;;9.40;6.72;;;;;;;16.89;100.00;99650.00;6295511;28;20471;-85
2021/08/30 11:00:39;;;;;;;7.88;7.00;;;;;;;16.91;100.00;99648.03;6295609;28;20037;-84
2021/08/30 11:03:40;;;;;;;7.20;6.30;;;;;;;17.01;100.00;99644.56;6296607;28;20044;-87
2021/08/30 11:06:41;;;;;;;8.00;6.60;;;;;;;17.01;100.00;99652.47;6295869;28;20068;-86
2021/08/30 11:09:47;;;;;;;7.65;6.85;;;;;;;17.15;100.00;99651.94;6278488;28;20517;-84
2021/08/30 11:12:48;;;;;;;8.18;6.47;;;;;;;17.65;98.21;99645.47;6257022;28;20051;-84
2021/08/30 11:15:48;;;;;;;8.55;6.32;;;;;;;17.70;97.69;99654.56;6243689;28;20041;-88
2021/08/30 11:18:54;;;;;;;7.60;5.68;;;;;;;17.36;94.77;99661.44;6307986;28;20474;-85
2021/08/30 11:21:59;;;;;;;7.80;5.35;;;;;;;17.78;93.37;99648.53;6276822;28;20048;-82
2021/08/30 11:25:02;;;;;;;9.82;5.50;;;;;;;17.52;94.70;99658.97;6254484;28;20049;-85
2021/08/30 11:28:18;;;;;;;6.88;5.32;;;;;;;18.11;88.98;99659.44;6271267;28;20066;-82
2021/08/30 11:31:24;;;;;;;5.60;5.03;;;;;;;18.94;84.16;99664.34;6253675;28;20036;-80
2021/08/30 11:34:31;;;;;;;6.70;4.47;;;;;;;18.92;83.52;99647.81;6269786;28;20067;-81
2021/08/30 11:37:35;;;;;;;5.45;4.03;;;;;;;19.09;73.42;99646.91;6299639;28;20512;-82
2021/08/30 11:40:36;;;;;;;4.88;4.28;;;;;;;18.85;77.28;99652.09;6294465;28;20510;-84
2021/08/30 11:43:36;;;;;;;5.47;4.20;;;;;;;19.14;80.56;99649.09;6294592;28;20036;-86
2021/08/30 11:46:42;;;;;;;5.27;4.77;;;;;;;19.17;75.99;99643.50;6278110;28;20040;-82
2021/08/30 11:49:44;;;;;;;8.40;4.30;;;;;;;19.16;76.66;99652.41;6295557;28;20048;-83
2021/08/30 11:52:45;;;;;;;;;;;;;;;19.28;74.23;99650.31;6295042;28;20153;-85
2021/08/30 11:55:46;;;;;;;7.95;3.70;;;;;;;19.54;72.27;99644.94;6277975;28;20375;-90
2021/08/30 11:58:46;;;;;;;6.93;4.03;;;;;;;19.86;72.32;99638.88;6312013;28;20068;-89
2021/08/30 12:01:50;;;;;;;4.10;3.63;;;;;;;19.71;71.89;99633.41;6294905;28;20047;-87
2021/08/30 12:04:50;;;;;;;4.50;3.67;;;;;;;19.72;75.14;99634.25;6295843;28;20040;-89
2021/08/30 12:07:53;;;;;;;7.03;4.60;;;;;;;19.85;79.01;99634.59;6292994;28;20480;-92
2021/08/30 12:11:04;;;;;;;5.82;3.60;;;;;;;19.97;73.46;99634.28;6292217;28;20048;-89
2021/08/30 12:14:10;;;;;;;9.40;3.88;;;;;;;19.41;75.00;99626.84;6269926;28;20041;-89
2021/08/30 12:17:20;;;;;;;4.80;4.00;;;;;;;19.37;73.96;99625.53;6253700;28;20067;-88
2021/08/30 12:20:29;;;;;;;3.97;3.58;;;;;;;19.38;74.55;99624.53;6286581;28;20033;-88
2021/08/30 12:23:30;;;;;;;4.20;3.60;;;;;;;19.56;73.78;99626.22;6270286;28;20051;-89
2021/08/30 12:26:30;;;;;;;5.30;3.70;;;;;;;19.35;73.18;99626.69;6253217;28;20041;-82
2021/08/30 12:29:37;;;;;;;4.07;3.25;;;;;;;19.82;70.83;99626.16;6285804;28;20041;-81
2021/08/30 12:32:47;;;;;;;7.55;3.80;;;;;;;19.96;71.05;99628.16;6292848;28;20449;-89
2021/08/30 12:35:54;;;;;;;4.00;3.63;;;;;;;19.81;72.43;99629.78;6294563;28;20051;-85
2021/08/30 12:38:55;;;;;;;4.40;3.80;;;;;;;19.79;75.44;99624.66;6294363;28;20060;-87
2021/08/30 12:41:55;;;;;;;4.40;3.53;;;;;;;19.83;73.20;99619.84;6294760;28;20045;-89
2021/08/30 12:44:56;;;;;;;4.87;3.93;;;;;;;19.89;73.52;99632.44;6294291;28;20080;-87
2021/08/30 12:47:57;;;;;;;4.40;3.60;;;;;;;19.61;71.88;99637.19;6277738;28;20438;-85
2021/08/30 12:50:58;;;;;;;5.10;4.23;;;;;;;19.40;75.04;99635.78;6294760;28;20040;-90
2021/08/30 12:53:59;;;;;;;4.87;3.90;;;;;;;19.55;74.89;99621.94;6277987;28;20036;-88
2021/08/30 12:56:59;;;;;;;6.33;3.67;;;;;;;19.55;74.03;99629.88;6295733;28;20041;-86
2021/08/30 13:00:01;;;;;;;4.47;3.67;;;;;;;19.39;74.53;99628.84;6261067;28;20062;-88
2021/08/30 13:03:02;;;;;;;6.05;3.70;;;;;;;19.61;74.33;99623.94;6261640;28;20110;-88
2021/08/30 13:06:03;;;;;;;5.20;3.88;;;;;;;19.53;76.06;99620.28;6294990;28;20044;-88
2021/08/30 13:09:04;;;;;;;4.40;3.60;;;;;;;19.49;73.43;99621.59;6294660;28;20037;-87
2021/08/30 13:12:05;;;;;;;4.30;3.30;;;;;;;19.38;75.43;99624.53;6261997;28;20037;-88
2021/08/30 13:15:07;;;;;;;5.50;4.20;;;;;;;19.26;78.09;99625.84;6282660;28;20048;-90
2021/08/30 13:18:08;;;;;;;5.10;3.28;;;;;;;19.65;77.41;99618.16;6316162;28;20045;-88
2021/08/30 13:21:09;;;;;;;3.60;3.27;;;;;;;19.91;71.54;99612.78;6266305;28;20098;-84
2021/08/30 13:24:10;;;;;;;4.60;3.13;;;;;;;19.75;71.12;99618.03;6315847;28;20285;-87
2021/08/30 13:27:11;;;;;;;5.53;4.20;;;;;;;19.59;72.80;99618.81;6282089;28;20059;-89
2021/08/30 13:30:14;;;;;;;5.70;3.33;;;;;;;19.38;73.92;99621.91;6298538;28;20121;-89
2021/08/30 13:33:15;;;;;;;7.53;5.20;;;;;;;19.26;75.59;99623.19;6298356;28;20047;-88
2021/08/30 13:36:16;;;;;;;7.00;4.90;;;;;;;19.36;76.86;99623.06;6265408;28;20045;-87
2021/08/30 13:39:17;;;;;;;4.73;3.20;;;;;;;19.45;73.59;99608.84;6266062;28;20045;-88
2021/08/30 13:42:18;;;;;;;4.87;3.20;;;;;;;19.60;73.08;99617.84;6265597;28;20094;-88
2021/08/30 13:45:19;;;;;;;4.07;2.93;;;;;;;19.66;76.45;99611.88;6281570;28;20041;-88
2021/08/30 13:48:20;;;;;;;3.10;2.80;;;;;;;19.68;73.35;99609.91;6282070;28;20442;-89
2021/08/30 13:51:21;;;;;;;4.87;3.07;;;;;;;19.53;74.92;99614.16;6265557;28;20117;-91
2021/08/30 13:54:22;;;;;;;4.30;2.90;;;;;;;19.37;76.07;99609.66;6264836;28;20044;-88
2021/08/30 13:57:23;;;;;;;2.93;2.60;;;;;;;19.33;77.74;99618.91;6264384;28;20786;-87
2021/08/30 14:00:24;;;;;;;2.58;2.38;;;;;;;19.41;72.71;99613.63;6281175;28;20047;-87
2021/08/30 14:03:25;;;;;;;5.00;2.30;;;;;;;19.48;72.41;99612.00;6281040;28;20040;-88
2021/08/30 14:06:26;;;;;;;2.17;2.07;;;;;;;19.61;71.18;99618.66;6264548;28;20036;-88
2021/08/30 14:09:26;;;;;;;4.50;2.17;;;;;;;19.65;69.89;99620.81;6280831;28;20040;-84
2021/08/30 14:12:27;;;;;;;2.93;2.40;;;;;;;19.75;70.25;99617.19;6297417;28;20045;-86